sensor_id;sensor_type;location;lat;lon;timestamp;P1;durP1;ratioP1;P2;durP2;ratioP2
42168;SDS011;27838;43.858;25.974;2022-12-18T00:03:44;25.52;;;14.30;;
42168;SDS011;27838;43.858;25.974;2022-12-18T00:06:11;23.42;;;14.63;;
42168;SDS011;27838;43.858;25.974;2022-12-18T00:08:39;25.30;;;14.52;;
42168;SDS011;27838;43.858;25.974;2022-12-18T00:11:06;30.63;;;16.17;;
42168;SDS011;27838;43.858;25.974;2022-12-18T00:13:34;28.50;;;16.30;;
42168;SDS011;27838;43.858;25.974;2022-12-18T00:16:05;31.98;;;17.85;;
42168;SDS011;27838;43.858;25.974;2022-12-18T00:18:34;28.90;;;17.52;;
42168;SDS011;27838;43.858;25.974;2022-12-18T00:21:02;32.88;;;18.50;;
42168;SDS011;27838;43.858;25.974;2022-12-18T00:23:30;32.15;;;18.65;;
42168;SDS011;27838;43.858;25.974;2022-12-18T00:26:01;30.23;;;17.33;;
42168;SDS011;27838;43.858;25.974;2022-12-18T00:28:30;29.23;;;17.75;;
42168;SDS011;27838;43.858;25.974;2022-12-18T00:31:03;33.08;;;18.98;;
42168;SDS011;27838;43.858;25.974;2022-12-18T00:33:32;32.10;;;18.08;;
42168;SDS011;27838;43.858;25.974;2022-12-18T00:36:33;34.95;;;18.80;;
42168;SDS011;27838;43.858;25.974;2022-12-18T00:38:56;36.40;;;18.25;;
42168;SDS011;27838;43.858;25.974;2022-12-18T00:41:24;33.83;;;18.98;;
42168;SDS011;27838;43.858;25.974;2022-12-18T00:44:09;32.38;;;18.27;;
42168;SDS011;27838;43.858;25.974;2022-12-18T00:46:38;32.70;;;18.67;;
42168;SDS011;27838;43.858;25.974;2022-12-18T00:49:05;32.78;;;19.10;;
42168;SDS011;27838;43.858;25.974;2022-12-18T00:51:31;34.55;;;18.38;;
42168;SDS011;27838;43.858;25.974;2022-12-18T00:53:58;31.15;;;19.10;;
42168;SDS011;27838;43.858;25.974;2022-12-18T00:56:25;35.05;;;18.70;;
42168;SDS011;27838;43.858;25.974;2022-12-18T00:58:51;33.35;;;19.50;;
42168;SDS011;27838;43.858;25.974;2022-12-18T01:01:18;35.95;;;19.55;;
42168;SDS011;27838;43.858;25.974;2022-12-18T01:03:44;30.98;;;17.85;;
42168;SDS011;27838;43.858;25.974;2022-12-18T01:06:11;33.42;;;18.23;;
42168;SDS011;27838;43.858;25.974;2022-12-18T01:08:40;37.35;;;20.10;;
42168;SDS011;27838;43.858;25.974;2022-12-18T01:11:07;34.22;;;18.73;;
42168;SDS011;27838;43.858;25.974;2022-12-18T01:13:35;29.50;;;18.10;;
42168;SDS011;27838;43.858;25.974;2022-12-18T01:16:02;31.60;;;19.08;;
42168;SDS011;27838;43.858;25.974;2022-12-18T01:18:29;35.88;;;17.80;;
42168;SDS011;27838;43.858;25.974;2022-12-18T01:20:55;29.42;;;17.40;;
42168;SDS011;27838;43.858;25.974;2022-12-18T01:23:22;29.80;;;17.88;;
42168;SDS011;27838;43.858;25.974;2022-12-18T01:25:48;31.90;;;17.10;;
42168;SDS011;27838;43.858;25.974;2022-12-18T01:28:15;28.42;;;17.10;;
42168;SDS011;27838;43.858;25.974;2022-12-18T01:30:41;28.83;;;16.42;;
42168;SDS011;27838;43.858;25.974;2022-12-18T01:33:08;29.40;;;17.10;;
42168;SDS011;27838;43.858;25.974;2022-12-18T01:35:39;32.80;;;16.67;;
42168;SDS011;27838;43.858;25.974;2022-12-18T01:38:07;30.42;;;17.00;;
42168;SDS011;27838;43.858;25.974;2022-12-18T01:40:34;28.85;;;17.73;;
42168;SDS011;27838;43.858;25.974;2022-12-18T01:43:01;28.00;;;16.67;;
42168;SDS011;27838;43.858;25.974;2022-12-18T01:45:28;28.42;;;15.27;;
42168;SDS011;27838;43.858;25.974;2022-12-18T01:47:58;27.92;;;16.00;;
42168;SDS011;27838;43.858;25.974;2022-12-18T01:50:34;30.20;;;16.38;;
42168;SDS011;27838;43.858;25.974;2022-12-18T01:53:11;28.50;;;16.55;;
42168;SDS011;27838;43.858;25.974;2022-12-18T01:55:43;30.48;;;16.67;;
42168;SDS011;27838;43.858;25.974;2022-12-18T01:58:12;27.27;;;16.25;;
42168;SDS011;27838;43.858;25.974;2022-12-18T02:00:39;29.15;;;16.35;;
42168;SDS011;27838;43.858;25.974;2022-12-18T02:03:06;28.30;;;16.02;;
42168;SDS011;27838;43.858;25.974;2022-12-18T02:16:50;27.48;;;15.30;;
42168;SDS011;27838;43.858;25.974;2022-12-18T02:21:55;27.77;;;15.30;;
42168;SDS011;27838;43.858;25.974;2022-12-18T02:27:18;26.40;;;15.48;;
42168;SDS011;27838;43.858;25.974;2022-12-18T02:29:54;26.15;;;15.65;;
42168;SDS011;27838;43.858;25.974;2022-12-18T02:32:30;27.88;;;14.93;;
42168;SDS011;27838;43.858;25.974;2022-12-18T02:35:00;28.02;;;15.05;;
42168;SDS011;27838;43.858;25.974;2022-12-18T02:37:30;28.42;;;16.42;;
42168;SDS011;27838;43.858;25.974;2022-12-18T02:39:59;30.52;;;16.23;;
42168;SDS011;27838;43.858;25.974;2022-12-18T02:42:28;27.52;;;16.35;;
42168;SDS011;27838;43.858;25.974;2022-12-18T02:44:54;27.40;;;16.63;;
42168;SDS011;27838;43.858;25.974;2022-12-18T02:47:22;30.35;;;17.17;;
42168;SDS011;27838;43.858;25.974;2022-12-18T02:52:41;29.75;;;16.33;;
42168;SDS011;27838;43.858;25.974;2022-12-18T02:58:26;28.48;;;16.83;;
42168;SDS011;27838;43.858;25.974;2022-12-18T03:00:52;31.40;;;17.02;;
42168;SDS011;27838;43.858;25.974;2022-12-18T03:03:30;29.23;;;17.60;;
42168;SDS011;27838;43.858;25.974;2022-12-18T03:06:05;29.65;;;16.60;;
42168;SDS011;27838;43.858;25.974;2022-12-18T03:08:46;30.08;;;17.48;;
42168;SDS011;27838;43.858;25.974;2022-12-18T03:11:15;30.52;;;18.00;;
42168;SDS011;27838;43.858;25.974;2022-12-18T03:14:02;33.50;;;18.73;;
42168;SDS011;27838;43.858;25.974;2022-12-18T03:16:32;33.60;;;18.23;;
42168;SDS011;27838;43.858;25.974;2022-12-18T03:19:02;30.08;;;18.65;;
42168;SDS011;27838;43.858;25.974;2022-12-18T03:21:36;34.22;;;19.02;;
42168;SDS011;27838;43.858;25.974;2022-12-18T03:24:07;31.20;;;17.42;;
42168;SDS011;27838;43.858;25.974;2022-12-18T03:26:36;31.35;;;18.40;;
42168;SDS011;27838;43.858;25.974;2022-12-18T03:29:10;34.28;;;18.98;;
42168;SDS011;27838;43.858;25.974;2022-12-18T03:31:41;32.25;;;18.90;;
42168;SDS011;27838;43.858;25.974;2022-12-18T03:34:13;35.83;;;19.27;;
42168;SDS011;27838;43.858;25.974;2022-12-18T03:36:45;32.63;;;18.38;;
42168;SDS011;27838;43.858;25.974;2022-12-18T03:39:12;30.23;;;18.25;;
42168;SDS011;27838;43.858;25.974;2022-12-18T03:42:13;34.53;;;20.52;;
42168;SDS011;27838;43.858;25.974;2022-12-18T03:44:49;34.88;;;20.17;;
42168;SDS011;27838;43.858;25.974;2022-12-18T03:47:39;37.20;;;20.67;;
42168;SDS011;27838;43.858;25.974;2022-12-18T03:50:20;37.58;;;19.48;;
42168;SDS011;27838;43.858;25.974;2022-12-18T03:55:26;34.88;;;21.17;;
42168;SDS011;27838;43.858;25.974;2022-12-18T03:57:56;35.75;;;20.50;;
42168;SDS011;27838;43.858;25.974;2022-12-18T04:00:24;34.65;;;21.60;;
42168;SDS011;27838;43.858;25.974;2022-12-18T04:02:51;35.60;;;21.00;;
42168;SDS011;27838;43.858;25.974;2022-12-18T04:05:20;40.00;;;21.52;;
42168;SDS011;27838;43.858;25.974;2022-12-18T04:07:48;39.50;;;21.30;;
42168;SDS011;27838;43.858;25.974;2022-12-18T04:10:17;41.85;;;21.70;;
42168;SDS011;27838;43.858;25.974;2022-12-18T04:12:44;39.28;;;21.27;;
42168;SDS011;27838;43.858;25.974;2022-12-18T04:15:11;42.03;;;22.17;;
42168;SDS011;27838;43.858;25.974;2022-12-18T04:17:38;34.47;;;20.60;;
42168;SDS011;27838;43.858;25.974;2022-12-18T04:20:12;38.58;;;22.15;;
42168;SDS011;27838;43.858;25.974;2022-12-18T04:22:39;38.13;;;21.75;;
42168;SDS011;27838;43.858;25.974;2022-12-18T04:25:06;40.83;;;21.80;;
42168;SDS011;27838;43.858;25.974;2022-12-18T04:27:32;38.35;;;21.73;;
42168;SDS011;27838;43.858;25.974;2022-12-18T04:29:59;37.92;;;21.63;;
42168;SDS011;27838;43.858;25.974;2022-12-18T04:32:25;35.53;;;20.48;;
42168;SDS011;27838;43.858;25.974;2022-12-18T04:34:52;38.20;;;22.08;;
42168;SDS011;27838;43.858;25.974;2022-12-18T04:37:18;36.50;;;21.83;;
42168;SDS011;27838;43.858;25.974;2022-12-18T04:39:45;37.58;;;20.70;;
42168;SDS011;27838;43.858;25.974;2022-12-18T04:42:11;41.67;;;23.33;;
42168;SDS011;27838;43.858;25.974;2022-12-18T04:44:38;36.92;;;22.70;;
42168;SDS011;27838;43.858;25.974;2022-12-18T04:47:04;39.72;;;22.33;;
42168;SDS011;27838;43.858;25.974;2022-12-18T04:49:31;40.28;;;21.92;;
42168;SDS011;27838;43.858;25.974;2022-12-18T04:51:57;42.17;;;21.92;;
42168;SDS011;27838;43.858;25.974;2022-12-18T04:54:24;40.50;;;22.20;;
42168;SDS011;27838;43.858;25.974;2022-12-18T04:56:50;40.72;;;22.73;;
42168;SDS011;27838;43.858;25.974;2022-12-18T04:59:17;41.75;;;22.17;;
42168;SDS011;27838;43.858;25.974;2022-12-18T05:01:43;47.28;;;23.10;;
42168;SDS011;27838;43.858;25.974;2022-12-18T05:04:10;42.05;;;22.05;;
42168;SDS011;27838;43.858;25.974;2022-12-18T05:06:37;43.53;;;23.13;;
42168;SDS011;27838;43.858;25.974;2022-12-18T05:09:03;42.50;;;22.58;;
42168;SDS011;27838;43.858;25.974;2022-12-18T05:11:30;42.72;;;23.05;;
42168;SDS011;27838;43.858;25.974;2022-12-18T05:13:56;40.83;;;23.13;;
42168;SDS011;27838;43.858;25.974;2022-12-18T05:16:23;38.90;;;21.70;;
42168;SDS011;27838;43.858;25.974;2022-12-18T05:18:50;38.30;;;22.30;;
42168;SDS011;27838;43.858;25.974;2022-12-18T05:21:16;41.47;;;23.40;;
42168;SDS011;27838;43.858;25.974;2022-12-18T05:23:43;42.67;;;23.77;;
42168;SDS011;27838;43.858;25.974;2022-12-18T05:26:09;38.72;;;22.55;;
42168;SDS011;27838;43.858;25.974;2022-12-18T05:31:08;46.42;;;23.60;;
42168;SDS011;27838;43.858;25.974;2022-12-18T05:33:36;42.55;;;23.23;;
42168;SDS011;27838;43.858;25.974;2022-12-18T05:36:03;46.40;;;24.33;;
42168;SDS011;27838;43.858;25.974;2022-12-18T05:38:33;44.80;;;23.65;;
42168;SDS011;27838;43.858;25.974;2022-12-18T05:41:00;41.72;;;23.25;;
42168;SDS011;27838;43.858;25.974;2022-12-18T05:43:27;47.53;;;24.23;;
42168;SDS011;27838;43.858;25.974;2022-12-18T05:45:54;42.42;;;23.45;;
42168;SDS011;27838;43.858;25.974;2022-12-18T05:48:22;46.53;;;24.70;;
42168;SDS011;27838;43.858;25.974;2022-12-18T05:50:49;40.10;;;24.10;;
42168;SDS011;27838;43.858;25.974;2022-12-18T05:53:17;39.80;;;23.65;;
42168;SDS011;27838;43.858;25.974;2022-12-18T05:55:47;46.85;;;23.30;;
42168;SDS011;27838;43.858;25.974;2022-12-18T05:58:14;44.75;;;24.90;;
42168;SDS011;27838;43.858;25.974;2022-12-18T06:00:42;45.53;;;24.02;;
42168;SDS011;27838;43.858;25.974;2022-12-18T06:03:11;44.78;;;24.20;;
42168;SDS011;27838;43.858;25.974;2022-12-18T06:05:39;46.55;;;25.35;;
42168;SDS011;27838;43.858;25.974;2022-12-18T06:08:08;47.78;;;24.25;;
42168;SDS011;27838;43.858;25.974;2022-12-18T06:10:35;42.85;;;23.48;;
42168;SDS011;27838;43.858;25.974;2022-12-18T06:13:02;47.95;;;24.77;;
42168;SDS011;27838;43.858;25.974;2022-12-18T06:15:29;45.25;;;24.10;;
42168;SDS011;27838;43.858;25.974;2022-12-18T06:17:55;47.95;;;25.02;;
42168;SDS011;27838;43.858;25.974;2022-12-18T06:20:22;52.33;;;24.83;;
42168;SDS011;27838;43.858;25.974;2022-12-18T06:22:49;42.35;;;23.23;;
42168;SDS011;27838;43.858;25.974;2022-12-18T06:25:15;43.20;;;24.10;;
42168;SDS011;27838;43.858;25.974;2022-12-18T06:27:42;47.70;;;24.13;;
42168;SDS011;27838;43.858;25.974;2022-12-18T06:30:09;45.35;;;24.40;;
42168;SDS011;27838;43.858;25.974;2022-12-18T06:32:36;41.85;;;24.48;;
42168;SDS011;27838;43.858;25.974;2022-12-18T06:35:03;44.63;;;24.05;;
42168;SDS011;27838;43.858;25.974;2022-12-18T06:37:30;43.70;;;25.08;;
42168;SDS011;27838;43.858;25.974;2022-12-18T06:39:57;42.83;;;24.33;;
42168;SDS011;27838;43.858;25.974;2022-12-18T06:42:24;43.03;;;24.30;;
42168;SDS011;27838;43.858;25.974;2022-12-18T06:44:51;44.03;;;24.25;;
42168;SDS011;27838;43.858;25.974;2022-12-18T06:47:18;43.30;;;23.83;;
42168;SDS011;27838;43.858;25.974;2022-12-18T06:49:44;45.17;;;23.77;;
42168;SDS011;27838;43.858;25.974;2022-12-18T06:52:11;46.38;;;23.50;;
42168;SDS011;27838;43.858;25.974;2022-12-18T06:54:38;44.58;;;24.77;;
42168;SDS011;27838;43.858;25.974;2022-12-18T06:57:04;49.08;;;24.80;;
42168;SDS011;27838;43.858;25.974;2022-12-18T06:59:31;43.03;;;25.80;;
42168;SDS011;27838;43.858;25.974;2022-12-18T07:01:57;39.80;;;23.83;;
42168;SDS011;27838;43.858;25.974;2022-12-18T07:04:27;46.47;;;25.27;;
42168;SDS011;27838;43.858;25.974;2022-12-18T07:06:54;42.35;;;24.33;;
42168;SDS011;27838;43.858;25.974;2022-12-18T07:09:22;45.95;;;24.13;;
42168;SDS011;27838;43.858;25.974;2022-12-18T07:11:48;44.58;;;24.48;;
42168;SDS011;27838;43.858;25.974;2022-12-18T07:14:15;49.28;;;25.20;;
42168;SDS011;27838;43.858;25.974;2022-12-18T07:16:41;45.30;;;24.42;;
42168;SDS011;27838;43.858;25.974;2022-12-18T07:19:08;45.22;;;24.35;;
42168;SDS011;27838;43.858;25.974;2022-12-18T07:21:35;42.25;;;23.88;;
42168;SDS011;27838;43.858;25.974;2022-12-18T07:24:01;44.85;;;25.25;;
42168;SDS011;27838;43.858;25.974;2022-12-18T07:26:28;48.85;;;24.95;;
42168;SDS011;27838;43.858;25.974;2022-12-18T07:28:55;45.80;;;25.25;;
42168;SDS011;27838;43.858;25.974;2022-12-18T07:31:23;43.92;;;24.58;;
42168;SDS011;27838;43.858;25.974;2022-12-18T07:33:50;48.58;;;25.48;;
42168;SDS011;27838;43.858;25.974;2022-12-18T07:36:17;46.30;;;24.10;;
42168;SDS011;27838;43.858;25.974;2022-12-18T07:38:46;44.92;;;24.13;;
42168;SDS011;27838;43.858;25.974;2022-12-18T07:41:14;47.92;;;25.25;;
42168;SDS011;27838;43.858;25.974;2022-12-18T07:43:40;47.58;;;25.40;;
42168;SDS011;27838;43.858;25.974;2022-12-18T07:46:07;52.97;;;26.10;;
42168;SDS011;27838;43.858;25.974;2022-12-18T07:48:35;44.67;;;26.05;;
42168;SDS011;27838;43.858;25.974;2022-12-18T07:51:02;45.47;;;24.52;;
42168;SDS011;27838;43.858;25.974;2022-12-18T07:53:31;52.33;;;25.85;;
42168;SDS011;27838;43.858;25.974;2022-12-18T07:55:59;45.70;;;25.33;;
42168;SDS011;27838;43.858;25.974;2022-12-18T07:58:27;56.88;;;24.80;;
42168;SDS011;27838;43.858;25.974;2022-12-18T08:00:54;47.53;;;26.35;;
42168;SDS011;27838;43.858;25.974;2022-12-18T08:03:27;48.05;;;25.63;;
42168;SDS011;27838;43.858;25.974;2022-12-18T08:05:57;51.17;;;26.30;;
42168;SDS011;27838;43.858;25.974;2022-12-18T08:08:25;32.97;;;19.90;;
42168;SDS011;27838;43.858;25.974;2022-12-18T08:10:51;46.28;;;25.48;;
42168;SDS011;27838;43.858;25.974;2022-12-18T08:13:18;46.45;;;24.10;;
42168;SDS011;27838;43.858;25.974;2022-12-18T08:15:44;41.25;;;23.73;;
42168;SDS011;27838;43.858;25.974;2022-12-18T08:18:11;42.50;;;23.52;;
42168;SDS011;27838;43.858;25.974;2022-12-18T08:20:37;46.40;;;25.08;;
42168;SDS011;27838;43.858;25.974;2022-12-18T08:23:04;47.10;;;23.95;;
42168;SDS011;27838;43.858;25.974;2022-12-18T08:25:31;45.30;;;23.60;;
42168;SDS011;27838;43.858;25.974;2022-12-18T08:27:57;45.15;;;24.52;;
42168;SDS011;27838;43.858;25.974;2022-12-18T08:30:24;42.40;;;23.75;;
42168;SDS011;27838;43.858;25.974;2022-12-18T08:32:53;45.65;;;24.88;;
42168;SDS011;27838;43.858;25.974;2022-12-18T08:35:19;46.55;;;24.42;;
42168;SDS011;27838;43.858;25.974;2022-12-18T08:37:46;43.30;;;22.35;;
42168;SDS011;27838;43.858;25.974;2022-12-18T08:40:13;48.25;;;24.67;;
42168;SDS011;27838;43.858;25.974;2022-12-18T08:42:39;42.15;;;23.35;;
42168;SDS011;27838;43.858;25.974;2022-12-18T08:45:28;43.22;;;23.67;;
42168;SDS011;27838;43.858;25.974;2022-12-18T08:47:55;40.38;;;22.30;;
42168;SDS011;27838;43.858;25.974;2022-12-18T08:50:22;46.97;;;22.63;;
42168;SDS011;27838;43.858;25.974;2022-12-18T08:52:48;43.03;;;22.52;;
42168;SDS011;27838;43.858;25.974;2022-12-18T08:55:15;47.03;;;23.67;;
42168;SDS011;27838;43.858;25.974;2022-12-18T08:57:41;45.03;;;22.20;;
42168;SDS011;27838;43.858;25.974;2022-12-18T09:00:08;44.75;;;22.40;;
42168;SDS011;27838;43.858;25.974;2022-12-18T09:02:35;37.35;;;21.08;;
42168;SDS011;27838;43.858;25.974;2022-12-18T09:05:01;51.80;;;23.52;;
42168;SDS011;27838;43.858;25.974;2022-12-18T09:07:28;46.78;;;21.98;;
42168;SDS011;27838;43.858;25.974;2022-12-18T09:09:54;43.08;;;22.70;;
42168;SDS011;27838;43.858;25.974;2022-12-18T09:12:21;36.45;;;21.55;;
42168;SDS011;27838;43.858;25.974;2022-12-18T09:14:47;42.47;;;23.42;;
42168;SDS011;27838;43.858;25.974;2022-12-18T09:17:14;43.15;;;25.17;;
42168;SDS011;27838;43.858;25.974;2022-12-18T09:19:40;40.72;;;22.80;;
42168;SDS011;27838;43.858;25.974;2022-12-18T09:22:08;47.80;;;22.20;;
42168;SDS011;27838;43.858;25.974;2022-12-18T09:24:35;57.10;;;22.95;;
42168;SDS011;27838;43.858;25.974;2022-12-18T09:27:01;41.03;;;22.27;;
42168;SDS011;27838;43.858;25.974;2022-12-18T09:29:28;40.50;;;21.95;;
42168;SDS011;27838;43.858;25.974;2022-12-18T09:31:55;39.05;;;20.30;;
42168;SDS011;27838;43.858;25.974;2022-12-18T09:34:21;43.15;;;22.30;;
42168;SDS011;27838;43.858;25.974;2022-12-18T09:36:48;43.55;;;24.95;;
42168;SDS011;27838;43.858;25.974;2022-12-18T09:39:14;47.80;;;24.95;;
42168;SDS011;27838;43.858;25.974;2022-12-18T09:44:28;45.15;;;24.15;;
42168;SDS011;27838;43.858;25.974;2022-12-18T09:47:02;37.83;;;22.27;;
42168;SDS011;27838;43.858;25.974;2022-12-18T09:49:35;41.05;;;22.20;;
42168;SDS011;27838;43.858;25.974;2022-12-18T09:52:21;45.10;;;22.92;;
42168;SDS011;27838;43.858;25.974;2022-12-18T09:54:54;52.95;;;23.42;;
42168;SDS011;27838;43.858;25.974;2022-12-18T09:57:37;53.53;;;22.40;;
42168;SDS011;27838;43.858;25.974;2022-12-18T10:00:16;47.63;;;24.40;;
42168;SDS011;27838;43.858;25.974;2022-12-18T10:02:46;45.97;;;23.83;;
42168;SDS011;27838;43.858;25.974;2022-12-18T10:05:14;47.08;;;22.50;;
42168;SDS011;27838;43.858;25.974;2022-12-18T10:07:47;88.97;;;46.83;;
42168;SDS011;27838;43.858;25.974;2022-12-18T10:10:19;52.42;;;23.98;;
42168;SDS011;27838;43.858;25.974;2022-12-18T10:18:25;42.90;;;22.77;;
42168;SDS011;27838;43.858;25.974;2022-12-18T10:21:10;48.30;;;22.75;;
42168;SDS011;27838;43.858;25.974;2022-12-18T10:26:17;43.22;;;22.50;;
42168;SDS011;27838;43.858;25.974;2022-12-18T10:28:44;50.10;;;23.90;;
42168;SDS011;27838;43.858;25.974;2022-12-18T10:31:15;42.45;;;23.60;;
42168;SDS011;27838;43.858;25.974;2022-12-18T10:33:44;46.58;;;24.52;;
42168;SDS011;27838;43.858;25.974;2022-12-18T10:36:11;44.47;;;23.90;;
42168;SDS011;27838;43.858;25.974;2022-12-18T10:38:38;46.15;;;22.23;;
42168;SDS011;27838;43.858;25.974;2022-12-18T10:41:06;64.10;;;25.35;;
42168;SDS011;27838;43.858;25.974;2022-12-18T10:43:37;40.08;;;22.35;;
42168;SDS011;27838;43.858;25.974;2022-12-18T10:51:25;43.50;;;22.95;;
42168;SDS011;27838;43.858;25.974;2022-12-18T10:53:59;42.05;;;22.70;;
42168;SDS011;27838;43.858;25.974;2022-12-18T10:56:28;52.03;;;22.50;;
42168;SDS011;27838;43.858;25.974;2022-12-18T10:58:58;47.47;;;22.83;;
42168;SDS011;27838;43.858;25.974;2022-12-18T11:01:45;50.50;;;23.05;;
42168;SDS011;27838;43.858;25.974;2022-12-18T11:04:27;41.53;;;23.85;;
42168;SDS011;27838;43.858;25.974;2022-12-18T11:06:59;47.15;;;21.05;;
42168;SDS011;27838;43.858;25.974;2022-12-18T11:09:31;44.95;;;23.08;;
42168;SDS011;27838;43.858;25.974;2022-12-18T11:12:03;46.55;;;23.08;;
42168;SDS011;27838;43.858;25.974;2022-12-18T11:17:23;39.78;;;23.45;;
42168;SDS011;27838;43.858;25.974;2022-12-18T11:20:03;50.58;;;23.48;;
42168;SDS011;27838;43.858;25.974;2022-12-18T11:22:32;55.40;;;25.17;;
42168;SDS011;27838;43.858;25.974;2022-12-18T11:25:04;45.65;;;23.35;;
42168;SDS011;27838;43.858;25.974;2022-12-18T11:27:33;41.38;;;23.23;;
42168;SDS011;27838;43.858;25.974;2022-12-18T11:30:13;51.58;;;23.85;;
42168;SDS011;27838;43.858;25.974;2022-12-18T11:32:49;46.42;;;22.40;;
42168;SDS011;27838;43.858;25.974;2022-12-18T11:35:32;40.50;;;23.05;;
42168;SDS011;27838;43.858;25.974;2022-12-18T11:38:01;51.67;;;24.73;;
42168;SDS011;27838;43.858;25.974;2022-12-18T11:40:34;45.80;;;24.85;;
42168;SDS011;27838;43.858;25.974;2022-12-18T11:43:06;47.13;;;23.55;;
42168;SDS011;27838;43.858;25.974;2022-12-18T11:45:46;45.38;;;24.02;;
42168;SDS011;27838;43.858;25.974;2022-12-18T11:48:28;49.65;;;24.17;;
42168;SDS011;27838;43.858;25.974;2022-12-18T11:51:00;46.42;;;23.23;;
42168;SDS011;27838;43.858;25.974;2022-12-18T11:53:30;41.72;;;22.23;;
42168;SDS011;27838;43.858;25.974;2022-12-18T11:58:46;45.05;;;23.52;;
42168;SDS011;27838;43.858;25.974;2022-12-18T12:01:27;53.97;;;24.10;;
42168;SDS011;27838;43.858;25.974;2022-12-18T12:04:01;62.38;;;25.40;;
42168;SDS011;27838;43.858;25.974;2022-12-18T12:07:09;45.40;;;24.73;;
42168;SDS011;27838;43.858;25.974;2022-12-18T12:12:52;42.15;;;23.48;;
42168;SDS011;27838;43.858;25.974;2022-12-18T12:15:29;44.30;;;22.92;;
42168;SDS011;27838;43.858;25.974;2022-12-18T12:23:40;49.35;;;24.65;;
42168;SDS011;27838;43.858;25.974;2022-12-18T12:29:20;46.17;;;25.30;;
42168;SDS011;27838;43.858;25.974;2022-12-18T12:40:27;49.25;;;25.33;;
42168;SDS011;27838;43.858;25.974;2022-12-18T12:42:58;51.15;;;25.55;;
42168;SDS011;27838;43.858;25.974;2022-12-18T12:48:51;45.17;;;25.20;;
42168;SDS011;27838;43.858;25.974;2022-12-18T12:51:22;44.92;;;26.88;;
42168;SDS011;27838;43.858;25.974;2022-12-18T12:54:26;49.05;;;26.83;;
42168;SDS011;27838;43.858;25.974;2022-12-18T13:02:17;69.57;;;28.15;;
42168;SDS011;27838;43.858;25.974;2022-12-18T13:05:12;61.20;;;28.52;;
42168;SDS011;27838;43.858;25.974;2022-12-18T13:08:22;61.45;;;32.22;;
42168;SDS011;27838;43.858;25.974;2022-12-18T13:10:38;48.58;;;27.08;;
42168;SDS011;27838;43.858;25.974;2022-12-18T13:13:13;57.88;;;28.90;;
42168;SDS011;27838;43.858;25.974;2022-12-18T13:15:47;58.60;;;26.40;;
42168;SDS011;27838;43.858;25.974;2022-12-18T13:18:29;51.63;;;27.23;;
42168;SDS011;27838;43.858;25.974;2022-12-18T13:25:52;47.72;;;26.25;;
42168;SDS011;27838;43.858;25.974;2022-12-18T13:28:20;50.13;;;27.80;;
42168;SDS011;27838;43.858;25.974;2022-12-18T13:31:00;46.92;;;27.20;;
42168;SDS011;27838;43.858;25.974;2022-12-18T13:36:13;58.42;;;28.48;;
42168;SDS011;27838;43.858;25.974;2022-12-18T13:39:15;50.85;;;27.80;;
42168;SDS011;27838;43.858;25.974;2022-12-18T13:41:50;49.28;;;27.52;;
42168;SDS011;27838;43.858;25.974;2022-12-18T13:44:57;58.70;;;27.52;;
42168;SDS011;27838;43.858;25.974;2022-12-18T13:47:30;50.78;;;27.17;;
42168;SDS011;27838;43.858;25.974;2022-12-18T13:49:59;57.08;;;27.95;;
42168;SDS011;27838;43.858;25.974;2022-12-18T13:52:28;58.13;;;28.05;;
42168;SDS011;27838;43.858;25.974;2022-12-18T13:55:04;52.30;;;27.38;;
42168;SDS011;27838;43.858;25.974;2022-12-18T13:57:40;52.75;;;27.83;;
42168;SDS011;27838;43.858;25.974;2022-12-18T14:00:23;53.75;;;27.67;;
42168;SDS011;27838;43.858;25.974;2022-12-18T14:02:54;51.53;;;27.80;;
42168;SDS011;27838;43.858;25.974;2022-12-18T14:05:22;50.72;;;26.10;;
42168;SDS011;27838;43.858;25.974;2022-12-18T14:07:55;62.78;;;27.40;;
42168;SDS011;27838;43.858;25.974;2022-12-18T14:10:28;76.80;;;29.88;;
42168;SDS011;27838;43.858;25.974;2022-12-18T14:12:55;56.15;;;26.58;;
42168;SDS011;27838;43.858;25.974;2022-12-18T14:17:57;48.38;;;26.92;;
42168;SDS011;27838;43.858;25.974;2022-12-18T14:20:26;54.10;;;27.25;;
42168;SDS011;27838;43.858;25.974;2022-12-18T14:22:55;54.20;;;26.80;;
42168;SDS011;27838;43.858;25.974;2022-12-18T14:25:23;54.80;;;26.95;;
42168;SDS011;27838;43.858;25.974;2022-12-18T14:30:40;54.47;;;27.17;;
42168;SDS011;27838;43.858;25.974;2022-12-18T14:35:35;50.08;;;27.25;;
42168;SDS011;27838;43.858;25.974;2022-12-18T14:40:45;56.05;;;27.92;;
42168;SDS011;27838;43.858;25.974;2022-12-18T14:43:12;54.55;;;26.42;;
42168;SDS011;27838;43.858;25.974;2022-12-18T14:45:40;45.30;;;26.77;;
42168;SDS011;27838;43.858;25.974;2022-12-18T14:48:31;54.83;;;28.90;;
42168;SDS011;27838;43.858;25.974;2022-12-18T14:51:03;52.10;;;27.73;;
42168;SDS011;27838;43.858;25.974;2022-12-18T14:53:36;58.25;;;27.55;;
42168;SDS011;27838;43.858;25.974;2022-12-18T15:04:03;53.75;;;28.80;;
42168;SDS011;27838;43.858;25.974;2022-12-18T15:06:33;58.25;;;29.77;;
42168;SDS011;27838;43.858;25.974;2022-12-18T15:09:24;56.35;;;27.92;;
42168;SDS011;27838;43.858;25.974;2022-12-18T15:11:58;51.78;;;28.38;;
42168;SDS011;27838;43.858;25.974;2022-12-18T15:14:31;47.63;;;28.02;;
42168;SDS011;27838;43.858;25.974;2022-12-18T15:17:00;60.65;;;30.40;;
42168;SDS011;27838;43.858;25.974;2022-12-18T15:19:33;56.33;;;30.63;;
42168;SDS011;27838;43.858;25.974;2022-12-18T15:22:03;51.80;;;29.23;;
42168;SDS011;27838;43.858;25.974;2022-12-18T15:24:31;60.90;;;30.08;;
42168;SDS011;27838;43.858;25.974;2022-12-18T15:26:59;59.35;;;29.20;;
42168;SDS011;27838;43.858;25.974;2022-12-18T15:29:26;60.90;;;31.13;;
42168;SDS011;27838;43.858;25.974;2022-12-18T15:32:03;55.80;;;28.63;;
42168;SDS011;27838;43.858;25.974;2022-12-18T15:34:32;99.03;;;46.53;;
42168;SDS011;27838;43.858;25.974;2022-12-18T15:36:59;68.05;;;33.97;;
42168;SDS011;27838;43.858;25.974;2022-12-18T15:39:25;82.03;;;39.60;;
42168;SDS011;27838;43.858;25.974;2022-12-18T15:41:52;68.57;;;34.40;;
42168;SDS011;27838;43.858;25.974;2022-12-18T15:44:36;72.65;;;35.80;;
42168;SDS011;27838;43.858;25.974;2022-12-18T15:47:03;69.18;;;35.95;;
42168;SDS011;27838;43.858;25.974;2022-12-18T15:49:33;67.22;;;33.85;;
42168;SDS011;27838;43.858;25.974;2022-12-18T15:52:01;71.30;;;35.63;;
42168;SDS011;27838;43.858;25.974;2022-12-18T15:54:28;71.10;;;35.95;;
42168;SDS011;27838;43.858;25.974;2022-12-18T15:57:12;70.90;;;35.45;;
42168;SDS011;27838;43.858;25.974;2022-12-18T15:59:52;70.82;;;35.72;;
42168;SDS011;27838;43.858;25.974;2022-12-18T16:02:22;71.60;;;34.13;;
42168;SDS011;27838;43.858;25.974;2022-12-18T16:04:50;69.35;;;34.03;;
42168;SDS011;27838;43.858;25.974;2022-12-18T16:07:18;69.25;;;34.88;;
42168;SDS011;27838;43.858;25.974;2022-12-18T16:09:45;67.53;;;34.55;;
42168;SDS011;27838;43.858;25.974;2022-12-18T16:12:20;67.82;;;33.53;;
42168;SDS011;27838;43.858;25.974;2022-12-18T16:14:48;67.63;;;33.67;;